Time;durP1;ratioP1;P1;durP2;ratioP2;P2;SDS_P1;SDS_P2;PMS_P1;PMS_P2;Temp;Humidity;BMP_temperature;BMP_pressure;BME280_temperature;BME280_humidity;BME280_pressure;Samples;Min_cycle;Max_cycle;Signal;HPM_P1;HPM_P2
2022/04/15 00:00:06;;;;;;;11.23;6.43;;;7.20;99.90;;;;;;5045177;28;20033;-34
2022/04/15 00:02:32;;;;;;;11.60;5.73;;;7.20;99.90;;;;;;5049295;28;20128;-34
2022/04/15 00:04:59;;;;;;;9.97;5.60;;;7.20;99.90;;;;;;5047331;28;20045;-35
2022/04/15 00:07:25;;;;;;;12.47;5.87;;;7.20;99.90;;;;;;5033327;28;20501;-35
2022/04/15 00:09:51;;;;;;;12.80;6.00;;;7.20;99.90;;;;;;5050890;28;20045;-32
2022/04/15 00:12:28;;;;;;;15.30;6.60;;;7.20;99.90;;;;;;5046475;28;20049;-34
2022/04/15 00:14:55;;;;;;;13.90;6.10;;;7.30;99.90;;;;;;5047345;28;20567;-34
2022/04/15 00:17:21;;;;;;;10.80;5.43;;;7.30;99.90;;;;;;5029332;28;20040;-34
2022/04/15 00:19:47;;;;;;;11.97;5.47;;;7.30;99.90;;;;;;5046532;28;20064;-32
2022/04/15 00:22:13;;;;;;;9.87;5.37;;;7.30;99.90;;;;;;5045672;28;20048;-31
2022/04/15 00:24:38;;;;;;;13.70;6.43;;;7.30;99.90;;;;;;5049311;28;20047;-32
2022/04/15 00:27:04;;;;;;;13.07;6.10;;;7.30;99.90;;;;;;5040121;28;20131;-33
2022/04/15 00:29:30;;;;;;;10.50;5.40;;;7.40;99.90;;;;;;5048034;28;20049;-35
2022/04/15 00:31:56;;;;;;;13.77;5.27;;;7.30;99.90;;;;;;5046668;28;20044;-32
2022/04/15 00:34:21;;;;;;;14.47;5.77;;;7.40;99.90;;;;;;5041460;28;20140;-34
2022/04/15 00:36:47;;;;;;;19.17;6.23;;;7.50;99.90;;;;;;5038815;28;20195;-33
2022/04/15 00:39:13;;;;;;;17.63;6.20;;;7.50;99.90;;;;;;5052674;28;20537;-34
2022/04/15 00:41:43;;;;;;;13.23;6.57;;;7.60;99.90;;;;;;5048689;28;20381;-35
2022/04/15 00:44:08;;;;;;;17.00;6.27;;;7.60;99.90;;;;;;5049586;28;20090;-34
2022/04/15 00:46:34;;;;;;;17.80;6.23;;;7.60;99.90;;;;;;5032206;28;20040;-34
2022/04/15 00:49:00;;;;;;;12.70;5.50;;;7.70;99.90;;;;;;5051148;28;20044;-32
2022/04/15 00:51:26;;;;;;;11.63;5.40;;;7.70;99.90;;;;;;5049916;28;20136;-34
2022/04/15 00:53:53;;;;;;;12.27;5.07;;;7.70;99.90;;;;;;5049519;28;20055;-34
2022/04/15 00:56:22;;;;;;;10.63;4.83;;;7.80;99.90;;;;;;5019122;28;20048;-35
2022/04/15 00:58:49;;;;;;;11.70;4.77;;;7.80;99.90;;;;;;5048845;28;20036;-35
2022/04/15 01:01:16;;;;;;;11.27;4.83;;;7.80;99.90;;;;;;5051568;28;20076;-35
2022/04/15 01:03:42;;;;;;;10.97;4.70;;;7.80;99.90;;;;;;5050441;28;20485;-33
2022/04/15 01:06:11;;;;;;;7.43;4.37;;;7.90;99.90;;;;;;5043065;28;20554;-33
2022/04/15 01:08:39;;;;;;;8.17;4.93;;;7.90;99.90;;;;;;5042284;28;20052;-35
2022/04/15 01:11:07;;;;;;;10.80;4.83;;;7.90;99.90;;;;;;5050423;28;20037;-32
2022/04/15 01:13:38;;;;;;;13.13;4.47;;;8.00;99.90;;;;;;5047345;28;20037;-34
2022/04/15 01:16:05;;;;;;;14.20;5.30;;;7.90;99.90;;;;;;5048485;28;20053;-35
2022/04/15 01:18:31;;;;;;;9.70;4.43;;;7.90;99.90;;;;;;5036194;28;20128;-34
2022/04/15 01:20:57;;;;;;;8.87;4.77;;;8.00;99.90;;;;;;5051830;28;20044;-32
2022/04/15 01:23:23;;;;;;;9.97;4.00;;;8.00;99.90;;;;;;5051294;28;20419;-35
2022/04/15 01:25:49;;;;;;;12.13;4.77;;;8.00;99.90;;;;;;5049721;28;20044;-34
2022/04/15 01:28:16;;;;;;;14.27;4.73;;;8.00;99.90;;;;;;5031414;28;20044;-35
2022/04/15 01:30:43;;;;;;;10.60;4.87;;;8.10;99.90;;;;;;5048025;28;20413;-32
2022/04/15 01:33:08;;;;;;;16.10;5.37;;;8.10;99.90;;;;;;5050135;28;20049;-35
2022/04/15 01:35:34;;;;;;;16.27;5.03;;;8.10;99.90;;;;;;5051588;28;20118;-35
2022/04/15 01:38:02;;;;;;;16.10;5.20;;;8.10;99.90;;;;;;5036598;28;20045;-34
2022/04/15 01:40:28;;;;;;;15.47;4.90;;;8.10;99.90;;;;;;5050778;28;20084;-34
2022/04/15 01:42:54;;;;;;;19.13;5.53;;;8.10;99.90;;;;;;5044364;28;20238;-34
2022/04/15 01:45:20;;;;;;;14.27;4.83;;;8.10;99.90;;;;;;5047179;28;20052;-32
2022/04/15 01:47:45;;;;;;;11.50;5.53;;;8.20;99.90;;;;;;5029747;28;20487;-32
2022/04/15 01:50:11;;;;;;;14.97;5.97;;;8.20;99.90;;;;;;5044523;28;20061;-33
2022/04/15 01:52:37;;;;;;;18.30;6.23;;;8.20;99.90;;;;;;5048452;28;20140;-34
2022/04/15 01:55:03;;;;;;;16.07;6.00;;;8.20;99.90;;;;;;5046670;28;20041;-34
2022/04/15 01:57:29;;;;;;;15.57;6.70;;;8.20;99.90;;;;;;5029729;28;20044;-34
2022/04/15 01:59:55;;;;;;;17.77;7.20;;;8.30;99.90;;;;;;5044737;28;20064;-33
2022/04/15 02:02:21;;;;;;;18.80;7.53;;;8.20;99.90;;;;;;5046376;28;20084;-35
2022/04/15 02:04:47;;;;;;;17.17;7.80;;;8.20;99.90;;;;;;5048704;28;20444;-33
2022/04/15 02:07:12;;;;;;;25.70;7.70;;;8.30;99.90;;;;;;5032880;28;20368;-32
2022/04/15 02:09:38;;;;;;;19.90;8.33;;;8.30;99.90;;;;;;5044203;28;20098;-31
2022/04/15 02:12:04;;;;;;;19.57;8.37;;;8.30;99.90;;;;;;5043824;28;20402;-32
2022/04/15 02:14:30;;;;;;;20.40;8.40;;;8.30;99.90;;;;;;5044718;28;20277;-35
2022/04/15 02:16:55;;;;;;;22.37;8.87;;;8.30;99.90;;;;;;5028495;28;22494;-34
2022/04/15 02:19:21;;;;;;;18.93;9.23;;;8.30;99.90;;;;;;5041885;28;20106;-35
2022/04/15 02:21:48;;;;;;;22.40;8.63;;;8.30;99.90;;;;;;5046122;28;20048;-31
2022/04/15 02:24:14;;;;;;;19.77;8.43;;;8.30;99.90;;;;;;5043557;28;20041;-32
2022/04/15 02:26:40;;;;;;;17.60;8.13;;;8.30;99.90;;;;;;5030470;28;20048;-33
2022/04/15 02:29:06;;;;;;;15.17;8.00;;;8.30;99.90;;;;;;5044970;28;20040;-34
2022/04/15 02:31:31;;;;;;;21.17;8.87;;;8.30;99.90;;;;;;5043213;28;20044;-32
2022/04/15 02:33:57;;;;;;;16.23;7.90;;;8.40;99.90;;;;;;5046048;28;20071;-32
2022/04/15 02:36:23;;;;;;;19.17;9.13;;;8.30;99.90;;;;;;5014241;28;20098;-33
2022/04/15 02:38:48;;;;;;;20.07;9.57;;;8.30;99.90;;;;;;5044706;28;20052;-33
2022/04/15 02:41:15;;;;;;;22.70;11.60;;;8.40;99.90;;;;;;5050088;28;20052;-34
2022/04/15 02:43:41;;;;;;;21.57;12.83;;;8.30;99.90;;;;;;5052534;28;20136;-33
2022/04/15 02:46:10;;;;;;;19.63;14.10;;;8.30;99.90;;;;;;5048165;28;20052;-31
2022/04/15 02:48:37;;;;;;;23.60;14.87;;;8.30;99.90;;;;;;5041780;28;20044;-35
2022/04/15 02:51:03;;;;;;;18.63;15.40;;;8.30;99.90;;;;;;5055222;28;20119;-33
2022/04/15 02:53:30;;;;;;;20.63;15.70;;;8.20;99.90;;;;;;5051075;28;20318;-31
2022/04/15 02:55:59;;;;;;;18.93;15.77;;;8.30;99.90;;;;;;5053634;28;20086;-34
2022/04/15 02:58:25;;;;;;;17.60;14.83;;;8.30;99.90;;;;;;5037798;28;20044;-32
2022/04/15 03:00:50;;;;;;;20.50;14.70;;;8.30;99.90;;;;;;5053088;28;20178;-35
2022/04/15 03:03:17;;;;;;;17.30;14.47;;;8.30;99.90;;;;;;5051061;28;20037;-32
2022/04/15 03:05:43;;;;;;;17.80;12.77;;;8.30;99.90;;;;;;5050618;28;20127;-36
2022/04/15 03:08:09;;;;;;;14.27;11.20;;;8.30;99.90;;;;;;5034500;28;20509;-35
2022/04/15 03:10:35;;;;;;;11.00;9.90;;;8.20;99.90;;;;;;5052245;28;20751;-36
2022/04/15 03:13:01;;;;;;;11.60;9.90;;;8.20;99.90;;;;;;5053639;28;20061;-35
2022/04/15 03:15:27;;;;;;;12.43;8.50;;;8.20;99.90;;;;;;5052918;28;20048;-34
2022/04/15 03:17:53;;;;;;;10.20;7.50;;;8.20;99.90;;;;;;5034619;28;20052;-35
2022/04/15 03:20:18;;;;;;;9.00;7.10;;;8.20;99.90;;;;;;5052446;28;20044;-34
2022/04/15 03:22:45;;;;;;;9.47;7.10;;;8.10;99.90;;;;;;5053054;28;20052;-34
2022/04/15 03:25:17;;;;;;;10.47;6.83;;;8.10;99.90;;;;;;5051234;28;20492;-34
2022/04/15 03:27:46;;;;;;;11.10;6.70;;;8.10;99.90;;;;;;5037683;28;20084;-34
2022/04/15 03:30:14;;;;;;;7.17;5.47;;;8.10;99.90;;;;;;5051972;28;20063;-33
2022/04/15 03:32:52;;;;;;;8.07;5.87;;;8.00;99.90;;;;;;5033892;28;20075;-35
2022/04/15 03:35:20;;;;;;;7.17;5.30;;;8.00;99.90;;;;;;5051167;28;20048;-32
2022/04/15 03:37:47;;;;;;;6.47;5.57;;;8.00;99.90;;;;;;5035604;28;20566;-33
2022/04/15 03:40:12;;;;;;;8.53;5.53;;;8.00;99.90;;;;;;5050039;28;20511;-33
2022/04/15 03:42:53;;;;;;;7.87;5.10;;;7.90;99.90;;;;;;5050893;28;20047;-34
2022/04/15 03:45:19;;;;;;;5.63;5.03;;;7.90;99.90;;;;;;5050735;28;20500;-33
2022/04/15 03:47:46;;;;;;;8.43;5.40;;;7.90;99.90;;;;;;5032848;28;20879;-31
2022/04/15 03:50:12;;;;;;;6.60;5.20;;;7.90;99.90;;;;;;5046370;28;20102;-34
2022/04/15 03:52:42;;;;;;;6.93;5.17;;;7.80;99.90;;;;;;5045612;28;20055;-34
2022/04/15 03:55:10;;;;;;;7.07;5.00;;;7.80;99.90;;;;;;5047589;28;20199;-34
2022/04/15 03:57:36;;;;;;;8.60;5.37;;;7.80;99.90;;;;;;5032368;28;20058;-34
2022/04/15 04:00:02;;;;;;;7.13;5.03;;;7.90;99.90;;;;;;5047958;28;20508;-33
2022/04/15 04:02:27;;;;;;;7.00;5.20;;;7.80;99.90;;;;;;5045049;28;20102;-32
2022/04/15 04:04:53;;;;;;;5.87;4.47;;;7.80;99.90;;;;;;5050038;28;20349;-33
2022/04/15 04:07:19;;;;;;;7.70;4.33;;;7.80;99.90;;;;;;5033800;28;20037;-32
2022/04/15 04:09:44;;;;;;;7.13;4.37;;;7.60;99.90;;;;;;5046208;28;20059;-32
2022/04/15 04:12:10;;;;;;;7.47;4.10;;;7.70;99.90;;;;;;5045152;28;20045;-34
2022/04/15 04:14:36;;;;;;;4.77;3.60;;;7.70;99.90;;;;;;5045541;28;20506;-35
2022/04/15 04:17:01;;;;;;;5.57;3.67;;;7.70;99.90;;;;;;5029500;28;20128;-34
2022/04/15 04:19:27;;;;;;;4.47;3.50;;;7.70;99.90;;;;;;5043311;28;20151;-35
2022/04/15 04:21:53;;;;;;;5.57;3.70;;;7.70;99.90;;;;;;5044700;28;20056;-35
2022/04/15 04:24:18;;;;;;;5.50;3.30;;;7.70;99.90;;;;;;5042855;28;20040;-35
2022/04/15 04:26:44;;;;;;;5.27;2.77;;;7.60;99.90;;;;;;5036473;28;20053;-32
2022/04/15 04:29:09;;;;;;;5.60;3.20;;;7.60;99.90;;;;;;5048281;28;20052;-35
2022/04/15 04:31:35;;;;;;;5.87;3.13;;;7.60;99.90;;;;;;5051190;28;20142;-31
2022/04/15 04:34:01;;;;;;;5.93;3.50;;;7.60;99.90;;;;;;5047098;28;20574;-34
2022/04/15 04:36:26;;;;;;;5.67;3.13;;;7.60;99.90;;;;;;5033995;28;20469;-34
2022/04/15 04:38:52;;;;;;;4.63;3.10;;;7.60;99.90;;;;;;5046891;28;20048;-35
2022/04/15 04:41:18;;;;;;;6.30;2.93;;;7.60;99.90;;;;;;5049994;28;20127;-32
2022/04/15 04:43:44;;;;;;;4.80;3.13;;;7.60;99.90;;;;;;5050057;28;20055;-35
2022/04/15 04:46:10;;;;;;;5.63;3.50;;;7.60;99.90;;;;;;5043396;28;20499;-34
2022/04/15 04:48:35;;;;;;;5.83;2.80;;;7.60;99.90;;;;;;5042268;28;20044;-34
2022/04/15 04:51:01;;;;;;;3.20;2.23;;;7.60;99.90;;;;;;5047982;28;20435;-32
2022/04/15 04:53:27;;;;;;;4.73;2.40;;;7.60;99.90;;;;;;5049234;28;20044;-34
2022/04/15 04:55:52;;;;;;;4.00;2.60;;;7.50;99.90;;;;;;5048632;28;20454;-32
2022/04/15 04:58:18;;;;;;;4.63;3.03;;;7.60;99.90;;;;;;5034079;28;20495;-32
2022/04/15 05:00:44;;;;;;;12.43;3.40;;;7.50;99.90;;;;;;5048820;28;20427;-34
2022/04/15 05:03:11;;;;;;;6.17;2.90;;;7.50;99.90;;;;;;5050668;28;20175;-34
2022/04/15 05:05:37;;;;;;;6.57;3.03;;;7.50;99.90;;;;;;5048959;28;20059;-34
2022/04/15 05:08:03;;;;;;;4.97;3.07;;;7.40;99.90;;;;;;5034410;28;20483;-32
2022/04/15 05:10:28;;;;;;;5.30;3.03;;;7.50;99.90;;;;;;5048507;28;20048;-35
2022/04/15 05:12:54;;;;;;;5.93;2.90;;;7.50;99.90;;;;;;5044933;28;20180;-34
2022/04/15 05:15:20;;;;;;;6.20;3.33;;;7.50;99.90;;;;;;5049700;28;20052;-34
2022/04/15 05:17:45;;;;;;;3.83;3.20;;;7.50;99.90;;;;;;5025761;28;20053;-32
2022/04/15 05:20:11;;;;;;;5.30;3.23;;;7.50;99.90;;;;;;5029889;28;20049;-33
2022/04/15 05:22:37;;;;;;;7.70;3.63;;;7.40;99.90;;;;;;5045316;28;20646;-35
2022/04/15 05:25:05;;;;;;;5.13;3.50;;;7.40;99.90;;;;;;5054452;28;20440;-33
2022/04/15 05:27:32;;;;;;;6.50;3.73;;;7.40;99.90;;;;;;5034494;28;20048;-35
2022/04/15 05:29:58;;;;;;;7.03;3.83;;;7.40;99.90;;;;;;5052363;28;20539;-34
2022/04/15 05:32:23;;;;;;;7.23;4.00;;;7.40;99.90;;;;;;5046819;28;20693;-31
2022/04/15 05:34:49;;;;;;;8.60;4.40;;;7.40;99.90;;;;;;5054807;28;20071;-34
2022/04/15 05:37:15;;;;;;;6.07;4.13;;;7.40;99.90;;;;;;5035713;28;20140;-34
2022/04/15 05:39:40;;;;;;;8.93;4.43;;;7.40;99.90;;;;;;5050781;28;20116;-34
2022/04/15 05:42:07;;;;;;;6.20;3.93;;;7.40;99.90;;;;;;5046276;28;20139;-35
2022/04/15 05:44:32;;;;;;;6.50;3.83;;;7.40;99.90;;;;;;5048054;28;20047;-32
2022/04/15 05:46:58;;;;;;;6.53;4.37;;;7.40;99.90;;;;;;5034046;28;20040;-34
2022/04/15 05:49:25;;;;;;;7.73;5.07;;;7.40;99.90;;;;;;5044386;28;20041;-34
2022/04/15 05:51:51;;;;;;;6.83;5.17;;;7.50;99.90;;;;;;5046379;28;20055;-35
2022/04/15 05:54:16;;;;;;;7.60;5.40;;;7.40;99.90;;;;;;5041808;28;20412;-32
2022/04/15 05:56:42;;;;;;;9.13;5.77;;;7.40;99.90;;;;;;5032831;28;20041;-34
2022/04/15 05:59:08;;;;;;;9.77;5.93;;;7.50;99.90;;;;;;5041482;28;20056;-33
2022/04/15 06:01:34;;;;;;;8.03;6.03;;;7.50;99.90;;;;;;5044159;28;20044;-34
2022/04/15 06:04:00;;;;;;;7.07;5.30;;;7.50;99.90;;;;;;5044226;28;20052;-34
2022/04/15 06:06:26;;;;;;;8.23;6.30;;;7.50;99.90;;;;;;5035094;28;20660;-32
2022/04/15 06:08:52;;;;;;;11.23;6.33;;;7.50;99.90;;;;;;5041049;28;20148;-31
2022/04/15 06:11:17;;;;;;;9.40;6.83;;;7.50;99.90;;;;;;5044438;28;20033;-34
2022/04/15 06:13:47;;;;;;;7.87;6.33;;;7.50;99.90;;;;;;5045781;28;20082;-34
2022/04/15 06:16:22;;;;;;;10.93;7.23;;;7.50;99.90;;;;;;5033477;28;20048;-36
2022/04/15 06:18:48;;;;;;;9.97;7.50;;;7.60;99.90;;;;;;5042821;28;20049;-34
2022/04/15 06:21:14;;;;;;;10.33;8.67;;;7.60;99.90;;;;;;5047926;28;20061;-34
2022/04/15 06:23:39;;;;;;;11.30;8.10;;;7.60;99.90;;;;;;5049843;28;20477;-34
2022/04/15 06:26:06;;;;;;;11.23;9.03;;;7.60;99.90;;;;;;5054137;28;20348;-35
2022/04/15 06:28:33;;;;;;;12.70;9.10;;;7.60;99.90;;;;;;5040823;28;20051;-33
2022/04/15 06:30:59;;;;;;;13.53;9.27;;;7.60;99.90;;;;;;5058748;28;20446;-34
2022/04/15 06:33:25;;;;;;;13.83;9.53;;;7.70;99.90;;;;;;5057144;28;20055;-33
2022/04/15 06:35:51;;;;;;;13.83;9.97;;;7.70;99.90;;;;;;5058317;28;20101;-35
2022/04/15 06:38:18;;;;;;;13.70;9.97;;;7.70;99.90;;;;;;5042200;28;20048;-35
2022/04/15 06:40:44;;;;;;;17.03;10.17;;;7.70;99.90;;;;;;5059246;28;20067;-33
2022/04/15 06:43:09;;;;;;;17.87;11.50;;;7.70;99.90;;;;;;5058495;28;20067;-35
2022/04/15 06:45:35;;;;;;;15.67;11.33;;;7.70;99.90;;;;;;5058001;28;20044;-34
2022/04/15 06:48:01;;;;;;;17.73;10.80;;;7.70;99.90;;;;;;5036636;28;20048;-32
2022/04/15 06:50:27;;;;;;;19.93;11.37;;;7.80;99.90;;;;;;5060465;28;20705;-33
2022/04/15 06:52:52;;;;;;;20.77;11.87;;;7.80;99.90;;;;;;5060570;28;20043;-33
2022/04/15 06:55:18;;;;;;;20.07;10.90;;;7.80;99.90;;;;;;5058760;28;20068;-32
2022/04/15 06:57:44;;;;;;;21.67;11.73;;;7.90;99.90;;;;;;5038026;28;20416;-34
2022/04/15 07:00:14;;;;;;;20.23;11.90;;;7.80;99.90;;;;;;5048131;28;20044;-32
2022/04/15 07:02:41;;;;;;;19.27;12.13;;;7.90;99.90;;;;;;5060196;28;20474;-35
2022/04/15 07:05:09;;;;;;;22.77;13.17;;;8.00;99.90;;;;;;5059356;28;20393;-33
2022/04/15 07:07:39;;;;;;;23.67;11.43;;;8.00;99.90;;;;;;5040997;28;20044;-33
2022/04/15 07:10:10;;;;;;;19.70;11.03;;;8.00;99.90;;;;;;5060578;28;20036;-33
2022/04/15 07:12:36;;;;;;;;;;;8.10;99.90;;;;;;5060272;28;20129;-35
2022/04/15 07:15:03;;;;;;;22.37;11.37;;;8.20;99.90;;;;;;5060641;28;19924;-33
2022/04/15 07:17:28;;;;;;;19.47;10.90;;;8.20;99.90;;;;;;5042599;28;20056;-34
2022/04/15 07:19:54;;;;;;;20.33;11.23;;;8.20;99.90;;;;;;5061030;28;20056;-32
2022/04/15 07:22:20;;;;;;;17.13;11.00;;;8.30;99.90;;;;;;5059630;28;20392;-35
2022/04/15 07:24:47;;;;;;;15.47;9.77;;;8.40;99.90;;;;;;5057559;28;20055;-34
2022/04/15 07:27:13;;;;;;;15.57;8.70;;;8.50;99.90;;;;;;5046889;28;20052;-32
2022/04/15 07:29:38;;;;;;;14.83;8.20;;;8.60;99.90;;;;;;5061301;28;20040;-34
2022/04/15 07:32:05;;;;;;;18.53;8.43;;;8.60;99.90;;;;;;5062722;28;20083;-34
2022/04/15 07:34:30;;;;;;;17.97;8.67;;;8.70;99.90;;;;;;5064659;28;20048;-34
2022/04/15 07:36:57;;;;;;;14.17;8.00;;;8.70;99.90;;;;;;5048655;28;20044;-33
2022/04/15 07:39:24;;;;;;;18.27;8.17;;;8.70;99.90;;;;;;5064840;28;20107;-32
2022/04/15 07:41:50;;;;;;;15.07;7.77;;;8.70;99.90;;;;;;5058203;28;20595;-33
2022/04/15 07:44:17;;;;;;;14.83;7.40;;;8.80;99.90;;;;;;5044678;28;21471;-33
2022/04/15 07:46:44;;;;;;;12.80;6.90;;;8.70;99.90;;;;;;5037463;28;20048;-33
2022/04/15 07:49:10;;;;;;;15.23;7.40;;;8.80;99.90;;;;;;5050015;28;20087;-35
2022/04/15 07:51:37;;;;;;;20.47;7.33;;;8.80;99.90;;;;;;5062171;28;20048;-33
2022/04/15 07:54:04;;;;;;;13.97;7.37;;;8.80;99.90;;;;;;5059510;28;20437;-35
2022/04/15 07:56:31;;;;;;;13.57;7.37;;;8.80;99.90;;;;;;5039524;28;20443;-35
2022/04/15 07:58:56;;;;;;;17.60;6.90;;;8.80;99.90;;;;;;5059045;28;20507;-35
2022/04/15 08:01:22;;;;;;;14.10;7.13;;;8.80;99.90;;;;;;5062570;28;20063;-33
2022/04/15 08:03:48;;;;;;;12.60;6.53;;;9.00;99.90;;;;;;5059963;28;20053;-34
2022/04/15 08:06:14;;;;;;;11.00;6.47;;;8.90;99.90;;;;;;5049095;28;20384;-35
2022/04/15 08:08:40;;;;;;;13.27;7.07;;;8.90;99.90;;;;;;5056885;28;20055;-33
2022/04/15 08:11:06;;;;;;;11.97;6.33;;;9.00;99.90;;;;;;5063183;28;20051;-35
2022/04/15 08:13:35;;;;;;;10.90;6.23;;;9.00;99.90;;;;;;5052189;28;20041;-32
2022/04/15 08:16:00;;;;;;;12.10;6.43;;;9.00;99.90;;;;;;5063926;28;20053;-34
2022/04/15 08:18:26;;;;;;;14.57;6.83;;;9.00;99.90;;;;;;5044791;28;20526;-33
2022/04/15 08:20:53;;;;;;;12.37;6.00;;;9.10;99.90;;;;;;5054125;28;20653;-35
2022/04/15 08:23:19;;;;;;;13.63;6.00;;;9.10;99.90;;;;;;5063679;28;20036;-35
2022/04/15 08:25:45;;;;;;;9.77;6.07;;;9.20;99.90;;;;;;5061229;28;20554;-35
2022/04/15 08:28:11;;;;;;;12.63;6.40;;;9.10;99.90;;;;;;5040669;28;20040;-35
2022/04/15 08:30:38;;;;;;;13.17;6.37;;;9.30;99.90;;;;;;5063314;28;20044;-34
2022/04/15 08:33:07;;;;;;;12.40;6.43;;;9.20;99.90;;;;;;5061438;28;20127;-34
2022/04/15 08:35:34;;;;;;;13.87;6.83;;;9.20;99.90;;;;;;5062628;28;20423;-33
2022/04/15 08:38:00;;;;;;;12.53;5.73;;;9.20;99.90;;;;;;5046342;28;20048;-34
2022/04/15 08:40:31;;;;;;;11.97;6.03;;;9.20;99.90;;;;;;5064196;28;20051;-35
2022/04/15 08:42:57;;;;;;;10.00;4.47;;;9.20;99.90;;;;;;5059315;28;20082;-35
2022/04/15 08:45:26;;;;;;;13.27;5.40;;;9.20;99.90;;;;;;5055809;28;20184;-31
2022/04/15 08:47:57;;;;;;;10.53;5.03;;;9.20;99.90;;;;;;5032594;28;20131;-34
2022/04/15 08:50:24;;;;;;;13.50;5.03;;;9.20;99.90;;;;;;5054655;28;20057;-35
2022/04/15 08:52:52;;;;;;;11.47;5.30;;;9.20;99.90;;;;;;5044528;28;20541;-32
2022/04/15 08:55:21;;;;;;;7.67;5.03;;;9.40;99.90;;;;;;5061438;28;20078;-34
2022/04/15 08:57:50;;;;;;;11.27;4.90;;;9.40;99.90;;;;;;5047444;28;20079;-34
2022/04/15 09:00:16;;;;;;;11.03;5.37;;;9.40;99.90;;;;;;5063588;28;20039;-33
2022/04/15 09:02:42;;;;;;;9.37;4.80;;;9.50;99.90;;;;;;5059673;28;20056;-33
2022/04/15 09:05:09;;;;;;;8.73;4.63;;;9.50;99.90;;;;;;5059482;28;20098;-34
2022/04/15 09:07:36;;;;;;;8.17;4.87;;;9.50;99.90;;;;;;5047413;28;20041;-33
2022/04/15 09:10:05;;;;;;;7.10;4.60;;;9.50;99.90;;;;;;5045073;28;20114;-35
2022/04/15 09:12:35;;;;;;;9.10;5.33;;;9.60;99.90;;;;;;5061521;28;20131;-33
2022/04/15 09:15:11;;;;;;;7.60;5.05;;;9.60;99.90;;;;;;5062629;28;20075;-34
2022/04/15 09:17:54;;;;;;;11.83;5.80;;;9.60;99.90;;;;;;5039552;28;20044;-34
2022/04/15 09:20:21;;;;;;;12.40;6.17;;;9.70;99.90;;;;;;5063219;28;20456;-35
2022/04/15 09:22:52;;;;;;;9.60;5.57;;;9.90;99.90;;;;;;5052540;28;20057;-34
2022/04/15 09:25:22;;;;;;;8.77;6.20;;;9.90;99.90;;;;;;5054802;28;20142;-34
2022/04/15 09:27:52;;;;;;;12.50;5.50;;;9.90;99.90;;;;;;5041124;28;20052;-34
2022/04/15 09:30:18;;;;;;;10.60;6.20;;;10.00;99.90;;;;;;5055449;28;20041;-32
2022/04/15 09:32:44;;;;;;;9.30;5.90;;;10.10;99.90;;;;;;5054350;28;20067;-33
2022/04/15 09:35:15;;;;;;;11.20;6.43;;;10.10;99.90;;;;;;5056197;28;20150;-34
2022/04/15 09:37:43;;;;;;;14.32;7.80;;;10.20;99.90;;;;;;5040386;28;20691;-33
2022/04/15 09:40:12;;;;;;;9.50;6.93;;;10.30;99.90;;;;;;5056735;28;20040;-33
2022/04/15 09:42:47;;;;;;;10.57;6.53;;;10.30;99.90;;;;;;5054882;28;20048;-33
2022/04/15 09:45:24;;;;;;;11.43;6.67;;;10.30;99.90;;;;;;5048267;28;20045;-35
2022/04/15 09:48:00;;;;;;;10.87;6.63;;;10.30;99.90;;;;;;5046600;28;20060;-35
2022/04/15 09:50:29;;;;;;;12.02;6.13;;;10.40;99.90;;;;;;5060139;28;20575;-35
2022/04/15 09:53:16;;;;;;;10.13;6.47;;;10.40;99.90;;;;;;5061751;28;20040;-35
2022/04/15 09:55:44;;;;;;;13.23;6.63;;;10.40;99.90;;;;;;5062580;28;20048;-35
2022/04/15 09:58:18;;;;;;;12.65;6.97;;;10.50;99.90;;;;;;5046779;28;20136;-35
2022/04/15 10:00:48;;;;;;;14.10;7.43;;;10.50;99.90;;;;;;5061561;28;20040;-31
2022/04/15 10:03:22;;;;;;;13.10;7.07;;;10.60;99.90;;;;;;5060811;28;20079;-32
2022/04/15 10:05:58;;;;;;;10.63;7.03;;;10.60;99.90;;;;;;5069605;28;20053;-35
2022/04/15 10:08:27;;;;;;;12.02;6.93;;;10.60;99.90;;;;;;5046603;28;20415;-32
2022/04/15 10:10:54;;;;;;;13.75;7.10;;;10.60;99.90;;;;;;5062536;28;20052;-34
2022/04/15 10:13:22;;;;;;;10.48;5.85;;;10.60;99.90;;;;;;5060284;28;20353;-33
2022/04/15 10:15:49;;;;;;;12.93;5.63;;;10.60;99.90;;;;;;5062149;28;20053;-32
2022/04/15 10:18:20;;;;;;;13.43;5.55;;;10.60;99.90;;;;;;5045076;28;20094;-34
2022/04/15 10:20:45;;;;;;;10.40;5.93;;;10.70;99.90;;;;;;5061554;28;20131;-33
2022/04/15 10:23:13;;;;;;;9.68;5.40;;;10.60;99.90;;;;;;5061098;28;20457;-34
2022/04/15 10:25:42;;;;;;;12.23;4.97;;;10.80;99.90;;;;;;5058393;28;20562;-33
2022/04/15 10:28:13;;;;;;;11.23;5.30;;;10.80;99.90;;;;;;5040335;28;20084;-34
2022/04/15 10:30:49;;;;;;;12.00;5.80;;;10.80;99.90;;;;;;5062105;28;20059;-35
2022/04/15 10:33:35;;;;;;;11.15;5.88;;;10.70;99.90;;;;;;5059255;28;20329;-32
2022/04/15 10:36:09;;;;;;;12.38;5.75;;;10.80;99.90;;;;;;5061350;28;20110;-33
2022/04/15 10:38:35;;;;;;;12.52;6.40;;;10.80;99.90;;;;;;5052821;28;20036;-34
2022/04/15 10:41:13;;;;;;;9.82;5.70;;;10.90;99.90;;;;;;5061659;28;20056;-32
2022/04/15 10:43:57;;;;;;;9.45;5.68;;;10.80;99.90;;;;;;5061623;28;20461;-32
2022/04/15 10:46:31;;;;;;;10.00;5.70;;;10.90;99.90;;;;;;5047322;28;20419;-34
2022/04/15 10:49:00;;;;;;;11.52;6.03;;;10.70;99.90;;;;;;5053925;28;20053;-33
2022/04/15 10:51:33;;;;;;;10.43;6.43;;;10.70;99.90;;;;;;5060421;28;20092;-34
2022/04/15 10:54:28;;;;;;;;;;;10.70;99.90;;;;;;5061700;28;20055;-34
2022/04/15 10:57:17;;;;;;;10.30;5.90;;;10.70;99.90;;;;;;5044405;28;20276;-34
2022/04/15 11:02:49;;;;;;;8.75;5.75;;;10.60;99.90;;;;;;5056615;28;20099;-35
2022/04/15 11:05:51;;;;;;;7.15;5.38;;;10.60;99.90;;;;;;5057997;28;20095;-34
2022/04/15 11:08:19;;;;;;;10.48;5.18;;;10.70;99.90;;;;;;5043205;28;20511;-35
2022/04/15 11:11:01;;;;;;;7.88;5.72;;;10.60;99.90;;;;;;5064204;28;20041;-34
2022/04/15 11:13:34;;;;;;;10.48;5.40;;;10.60;99.90;;;;;;5061943;28;20059;-35
2022/04/15 11:16:12;;;;;;;9.40;4.55;;;10.80;99.90;;;;;;5065057;28;20551;-35
2022/04/15 11:18:43;;;;;;;8.68;5.70;;;10.60;99.90;;;;;;5058395;28;20052;-35
2022/04/15 11:21:22;;;;;;;10.18;6.10;;;10.60;99.90;;;;;;5064379;28;20052;-35
2022/04/15 11:23:53;;;;;;;10.52;5.85;;;10.60;99.90;;;;;;5046572;28;20056;-31
2022/04/15 11:26:20;;;;;;;8.75;5.38;;;10.60;99.90;;;;;;5053916;28;20051;-35
2022/04/15 11:28:48;;;;;;;8.57;5.32;;;10.60;99.90;;;;;;5058585;28;20496;-35
2022/04/15 11:31:28;;;;;;;11.50;5.22;;;10.60;99.90;;;;;;5063873;28;20037;-35
2022/04/15 11:33:55;;;;;;;10.23;5.38;;;10.60;99.90;;;;;;5047037;28;20488;-34
2022/04/15 11:36:22;;;;;;;7.53;4.97;;;10.60;99.90;;;;;;5046945;28;20549;-33
2022/04/15 11:38:50;;;;;;;8.50;5.13;;;10.60;99.90;;;;;;5061740;28;20080;-34
2022/04/15 11:41:20;;;;;;;7.70;4.85;;;10.50;99.90;;;;;;5057162;28;20086;-34
2022/04/15 11:44:06;;;;;;;9.65;5.22;;;10.60;99.90;;;;;;5062241;28;20052;-35
2022/04/15 11:46:44;;;;;;;12.75;5.75;;;10.60;99.90;;;;;;5041226;28;20067;-35
2022/04/15 11:49:26;;;;;;;13.23;5.80;;;10.60;99.90;;;;;;5055541;28;20049;-35
2022/04/15 11:51:53;;;;;;;10.68;5.57;;;10.60;99.90;;;;;;5064836;28;20617;-34
2022/04/15 11:54:23;;;;;;;8.75;5.25;;;10.60;99.90;;;;;;5064908;28;20216;-35
2022/04/15 11:56:54;;;;;;;10.07;5.90;;;10.60;99.90;;;;;;5048575;28;20036;-35
2022/04/15 11:59:20;;;;;;;10.65;5.28;;;10.60;99.90;;;;;;5064713;28;20351;-34
2022/04/15 12:01:46;;;;;;;8.55;5.80;;;10.60;99.90;;;;;;5064235;28;20576;-35
2022/04/15 12:04:12;;;;;;;8.02;5.30;;;10.60;99.90;;;;;;5060599;28;20063;-35
2022/04/15 12:06:40;;;;;;;9.35;5.70;;;10.60;99.90;;;;;;5048180;28;20045;-34
2022/04/15 12:09:10;;;;;;;8.57;5.80;;;10.60;99.90;;;;;;5058637;28;20132;-35
2022/04/15 12:11:37;;;;;;;9.82;5.35;;;10.60;99.90;;;;;;5063487;28;20062;-32
2022/04/15 12:14:05;;;;;;;10.63;5.38;;;10.70;99.90;;;;;;5061948;28;20039;-32
2022/04/15 12:16:33;;;;;;;12.35;6.47;;;10.70;99.90;;;;;;5050650;28;20036;-35
2022/04/15 12:18:59;;;;;;;11.13;5.72;;;10.70;99.90;;;;;;5061078;28;21029;-33
2022/04/15 12:21:27;;;;;;;11.15;6.32;;;10.80;99.90;;;;;;5053277;28;20052;-36
2022/04/15 12:24:05;;;;;;;12.35;6.90;;;10.80;99.90;;;;;;5055480;28;20049;-35
2022/04/15 12:26:48;;;;;;;12.02;6.53;;;10.80;99.90;;;;;;5044203;28;20053;-36
2022/04/15 12:32:35;;;;;;;11.80;6.63;;;10.70;99.90;;;;;;5058441;28;20126;-35
2022/04/15 12:35:00;;;;;;;10.57;6.63;;;10.70;99.90;;;;;;5063599;28;20049;-37
2022/04/15 12:37:49;;;;;;;11.35;6.75;;;10.70;99.90;;;;;;5043571;28;20407;-37
2022/04/15 12:40:14;;;;;;;10.55;7.05;;;10.80;99.90;;;;;;5063324;28;20439;-37
2022/04/15 12:42:42;;;;;;;10.43;6.85;;;10.70;99.90;;;;;;5062562;28;20051;-37
2022/04/15 12:45:15;;;;;;;8.75;6.07;;;10.70;99.90;;;;;;5058268;28;20056;-37
2022/04/15 12:47:41;;;;;;;12.38;5.72;;;10.70;99.90;;;;;;5045552;28;20636;-37
2022/04/15 12:50:20;;;;;;;9.98;5.28;;;10.70;99.90;;;;;;5054271;28;20194;-38
2022/04/15 12:52:48;;;;;;;10.05;5.43;;;10.70;99.90;;;;;;5061584;28;20105;-37
2022/04/15 12:55:24;;;;;;;10.38;6.60;;;10.70;99.90;;;;;;5063173;28;20044;-32
2022/04/15 12:57:49;;;;;;;7.40;4.88;;;10.70;99.90;;;;;;5046083;28;20126;-32